Time;durP1;ratioP1;P1;durP2;ratioP2;P2;SDS_P1;SDS_P2;PMS_P1;PMS_P2;Temp;Humidity;BMP_temperature;BMP_pressure;BME280_temperature;BME280_humidity;BME280_pressure;Samples;Min_cycle;Max_cycle;Signal;HPM_P1;HPM_P2
2022/07/19 00:01:26;;;;;;;;;;;18.60;99.90;;;;;;5078694;28;20038;-72
2022/07/19 00:03:51;;;;;;;;;;;18.60;99.90;;;;;;5052499;28;19943;-73
2022/07/19 00:06:17;;;;;;;;;;;18.50;99.90;;;;;;5052731;28;20525;-73
2022/07/19 00:08:43;;;;;;;;;;;18.50;99.90;;;;;;5051514;28;19929;-72
2022/07/19 00:11:08;;;;;;;;;;;18.40;99.90;;;;;;5054096;28;19920;-72
2022/07/19 00:13:34;;;;;;;;;;;18.40;99.90;;;;;;5053238;28;20433;-73
2022/07/19 00:15:59;;;;;;;;;;;18.40;99.90;;;;;;5052853;28;19971;-73
2022/07/19 00:18:25;;;;;;;;;;;18.40;99.90;;;;;;5077189;28;20470;-72
2022/07/19 00:20:50;;;;;;;;;;;18.40;99.90;;;;;;5052337;28;19924;-73
2022/07/19 00:23:16;;;;;;;;;;;18.40;99.90;;;;;;5052030;28;19921;-72
2022/07/19 00:25:41;;;;;;;;;;;18.40;99.90;;;;;;5046019;28;19929;-72
2022/07/19 00:28:07;;;;;;;;;;;18.40;99.90;;;;;;5078556;28;19925;-72
2022/07/19 00:30:33;;;;;;;;;;;18.40;99.90;;;;;;5053469;28;19924;-73
2022/07/19 00:32:58;;;;;;;;;;;18.40;99.90;;;;;;5050937;28;20003;-72
2022/07/19 00:35:24;;;;;;;;;;;18.40;99.90;;;;;;5045559;28;20035;-73
2022/07/19 00:37:49;;;;;;;;;;;18.40;99.90;;;;;;5053694;28;20268;-72
2022/07/19 00:40:21;;;;;;;;;;;18.40;99.90;;;;;;5052215;28;20351;-72
2022/07/19 00:42:46;;;;;;;;;;;18.40;99.90;;;;;;5049496;28;19930;-72
2022/07/19 00:45:12;;;;;;;;;;;18.40;99.90;;;;;;5051482;28;19929;-72
2022/07/19 00:47:37;;;;;;;;;;;18.40;99.90;;;;;;5085299;28;20352;-73
2022/07/19 00:50:03;;;;;;;;;;;18.40;99.90;;;;;;5050144;28;20327;-73
2022/07/19 00:52:29;;;;;;;;;;;18.30;99.90;;;;;;5044228;28;20272;-73
2022/07/19 00:54:55;;;;;;;;;;;18.30;99.90;;;;;;5085519;28;20280;-72
2022/07/19 00:57:22;;;;;;;;;;;18.30;99.90;;;;;;5051679;28;19924;-72
2022/07/19 00:59:51;;;;;;;;;;;18.30;99.90;;;;;;5053241;28;19921;-73
2022/07/19 01:02:17;;;;;;;;;;;18.30;99.90;;;;;;5049245;28;19969;-72
2022/07/19 01:04:43;;;;;;;;;;;18.20;99.90;;;;;;5041258;28;19925;-72
2022/07/19 01:07:09;;;;;;;;;;;18.20;99.90;;;;;;5050605;28;19955;-73
2022/07/19 01:09:37;;;;;;;;;;;18.20;99.90;;;;;;5078442;28;20591;-73
2022/07/19 01:12:03;;;;;;;;;;;18.20;99.90;;;;;;5052905;28;19925;-72
2022/07/19 01:14:29;;;;;;;;;;;18.10;99.90;;;;;;5050929;28;20398;-72
2022/07/19 01:16:55;;;;;;;;;;;18.10;99.90;;;;;;5051683;28;19921;-73
2022/07/19 01:19:20;;;;;;;;;;;18.10;99.90;;;;;;5052543;28;20443;-72
2022/07/19 01:21:46;;;;;;;;;;;18.00;99.90;;;;;;5050403;28;19925;-73
2022/07/19 01:24:11;;;;;;;;;;;18.00;99.90;;;;;;5049834;28;20375;-73
2022/07/19 01:26:37;;;;;;;;;;;17.90;99.90;;;;;;5048676;28;19928;-72
2022/07/19 01:29:03;;;;;;;;;;;17.90;99.90;;;;;;5052288;28;19931;-73
2022/07/19 01:31:28;;;;;;;;;;;17.90;99.90;;;;;;5051146;28;19931;-72
2022/07/19 01:33:54;;;;;;;;;;;17.80;99.90;;;;;;5052325;28;19920;-73
2022/07/19 01:36:20;;;;;;;;;;;17.80;99.90;;;;;;5085015;28;20375;-73
2022/07/19 01:38:45;;;;;;;;;;;17.80;99.90;;;;;;5051454;28;20015;-72
2022/07/19 01:41:11;;;;;;;;;;;17.80;99.90;;;;;;5051821;28;19920;-72
2022/07/19 01:43:36;;;;;;;;;;;17.90;99.90;;;;;;5050511;28;20395;-72
2022/07/19 01:46:02;;;;;;;;;;;17.80;99.90;;;;;;5052193;28;19933;-72
2022/07/19 01:48:28;;;;;;;;;;;17.80;99.90;;;;;;5052028;28;19925;-72
2022/07/19 01:50:54;;;;;;;;;;;17.80;99.90;;;;;;5051081;28;20393;-72
2022/07/19 01:53:19;;;;;;;;;;;17.80;99.90;;;;;;5050887;28;20016;-72
2022/07/19 01:55:45;;;;;;;;;;;17.80;99.90;;;;;;5051189;28;19928;-73
2022/07/19 01:58:11;;;;;;;;;;;17.80;99.90;;;;;;5051804;28;20474;-73
2022/07/19 02:00:36;;;;;;;;;;;17.70;99.90;;;;;;5051483;28;20391;-72
2022/07/19 02:03:02;;;;;;;;;;;17.80;99.90;;;;;;5051943;28;20430;-72
2022/07/19 02:05:27;;;;;;;;;;;17.80;99.90;;;;;;5050502;28;20387;-73
2022/07/19 02:07:53;;;;;;;;;;;17.80;99.90;;;;;;5051960;28;20375;-73
2022/07/19 02:10:18;;;;;;;;;;;17.80;99.90;;;;;;5051968;28;20312;-73
2022/07/19 02:12:45;;;;;;;;;;;17.80;99.90;;;;;;5071193;28;20359;-72
2022/07/19 02:15:10;;;;;;;;;;;17.80;99.90;;;;;;5049405;28;20606;-72
2022/07/19 02:17:36;;;;;;;;;;;17.80;99.90;;;;;;5075366;28;19921;-72
2022/07/19 02:20:03;;;;;;;;;;;17.80;99.90;;;;;;5050858;28;19944;-72
2022/07/19 02:22:28;;;;;;;;;;;17.80;99.90;;;;;;5052056;28;19980;-73
2022/07/19 02:24:54;;;;;;;;;;;17.80;99.90;;;;;;5050792;28;19964;-73
2022/07/19 02:27:20;;;;;;;;;;;17.70;99.90;;;;;;5079858;28;19924;-73
2022/07/19 02:29:45;;;;;;;;;;;17.70;99.90;;;;;;5044800;28;20022;-73
2022/07/19 02:32:11;;;;;;;;;;;17.70;99.90;;;;;;5045324;28;19920;-73
2022/07/19 02:34:36;;;;;;;;;;;17.60;99.90;;;;;;5037887;28;19928;-73
2022/07/19 02:37:03;;;;;;;;;;;17.60;99.90;;;;;;5048755;28;19968;-73
2022/07/19 02:39:28;;;;;;;;;;;17.60;99.90;;;;;;5048203;28;19921;-73
2022/07/19 02:41:54;;;;;;;;;;;17.60;99.90;;;;;;5048581;28;19946;-73
2022/07/19 02:44:19;;;;;;;;;;;17.60;99.90;;;;;;5048706;28;19927;-73
2022/07/19 02:46:45;;;;;;;;;;;17.60;99.90;;;;;;5050300;28;19927;-73
2022/07/19 02:49:10;;;;;;;;;;;17.60;99.90;;;;;;5048173;28;19924;-73
2022/07/19 02:51:36;;;;;;;;;;;17.50;99.90;;;;;;5050109;28;19921;-73
2022/07/19 02:54:02;;;;;;;;;;;17.50;99.90;;;;;;5050085;28;19964;-73
2022/07/19 02:56:27;;;;;;;;;;;17.50;99.90;;;;;;5051297;28;19960;-73
2022/07/19 02:58:53;;;;;;;;;;;17.50;99.90;;;;;;5051314;28;20556;-73
2022/07/19 03:01:18;;;;;;;;;;;17.50;99.90;;;;;;5083795;28;20023;-73
2022/07/19 03:03:44;;;;;;;;;;;17.40;99.90;;;;;;5051139;28;20384;-73
2022/07/19 03:06:10;;;;;;;;;;;17.40;99.90;;;;;;5050622;28;20375;-73
2022/07/19 03:08:36;;;;;;;;;;;17.40;99.90;;;;;;5047677;28;19956;-73
2022/07/19 03:11:02;;;;;;;;;;;17.40;99.90;;;;;;5051201;28;19952;-73
2022/07/19 03:13:28;;;;;;;;;;;17.40;99.90;;;;;;5059051;28;20264;-73
2022/07/19 03:15:53;;;;;;;;;;;17.30;99.90;;;;;;5051256;28;20500;-73
2022/07/19 03:18:19;;;;;;;;;;;17.30;99.90;;;;;;5049961;28;19921;-73
2022/07/19 03:20:44;;;;;;;;;;;17.30;99.90;;;;;;5051223;28;20617;-73
2022/07/19 03:23:10;;;;;;;;;;;17.20;99.90;;;;;;5050384;28;19921;-73
2022/07/19 03:25:36;;;;;;;;;;;17.20;99.90;;;;;;5050474;28;20011;-73
2022/07/19 03:28:01;;;;;;;;;;;17.20;99.90;;;;;;5051031;28;19978;-73
2022/07/19 03:30:27;;;;;;;;;;;17.20;99.90;;;;;;5083344;28;19975;-73
2022/07/19 03:32:52;;;;;;;;;;;17.10;99.90;;;;;;5050699;28;20023;-73
2022/07/19 03:35:19;;;;;;;;;;;17.10;99.90;;;;;;5051193;28;19927;-73
2022/07/19 03:37:45;;;;;;;;;;;17.10;99.90;;;;;;5051110;28;19925;-73
2022/07/19 03:40:11;;;;;;;;;;;17.10;99.90;;;;;;5048125;28;19921;-73
2022/07/19 03:42:37;;;;;;;;;;;17.10;99.90;;;;;;5073594;28;19932;-74
2022/07/19 03:45:02;;;;;;;;;;;17.20;99.90;;;;;;5054452;28;19929;-73
2022/07/19 03:47:28;;;;;;;;;;;17.20;99.90;;;;;;5054350;28;20387;-73
2022/07/19 03:49:54;;;;;;;;;;;17.20;99.90;;;;;;5054498;28;19921;-73
2022/07/19 03:52:19;;;;;;;;;;;17.20;99.90;;;;;;5054161;28;19921;-73
2022/07/19 03:54:45;;;;;;;;;;;17.20;99.90;;;;;;5052290;28;19948;-70
2022/07/19 03:57:11;;;;;;;;;;;17.20;99.90;;;;;;5051481;28;19928;-69
2022/07/19 03:59:36;;;;;;;;;;;17.20;99.90;;;;;;5051122;28;19921;-69
2022/07/19 04:02:02;;;;;;;;;;;17.30;99.90;;;;;;5054413;28;20015;-70
2022/07/19 04:04:27;;;;;;;;;;;17.30;99.90;;;;;;5053888;28;19920;-70
2022/07/19 04:06:53;;;;;;;;;;;17.30;99.90;;;;;;5054242;28;20333;-70
2022/07/19 04:09:18;;;;;;;;;;;17.30;99.90;;;;;;5052573;28;19931;-70
2022/07/19 04:11:44;;;;;;;;;;;17.30;99.90;;;;;;5086622;28;19920;-70
2022/07/19 04:14:09;;;;;;;;;;;17.30;99.90;;;;;;5051117;28;19972;-70
2022/07/19 04:16:35;;;;;;;;;;;17.40;99.90;;;;;;5076666;28;20439;-70
2022/07/19 04:19:01;;;;;;;;;;;17.40;99.90;;;;;;5053979;28;19921;-70
2022/07/19 04:21:26;;;;;;;;;;;17.40;99.90;;;;;;5054013;28;19928;-70
2022/07/19 04:23:52;;;;;;;;;;;17.40;99.90;;;;;;5053429;28;19964;-70
2022/07/19 04:26:17;;;;;;;;;;;17.40;99.90;;;;;;5050097;28;20279;-71
2022/07/19 04:28:43;;;;;;;;;;;17.40;99.90;;;;;;5084953;28;19924;-71
2022/07/19 04:31:08;;;;;;;;;;;17.50;99.90;;;;;;5051872;28;20277;-72
2022/07/19 04:33:34;;;;;;;;;;;17.50;99.90;;;;;;5047135;28;19924;-71
2022/07/19 04:35:59;;;;;;;;;;;17.50;99.90;;;;;;5052269;28;20466;-71
2022/07/19 04:38:25;;;;;;;;;;;17.50;99.90;;;;;;5052350;28;19920;-70
2022/07/19 04:40:51;;;;;;;;;;;17.50;99.90;;;;;;5052495;28;19928;-71
2022/07/19 04:43:17;;;;;;;;;;;17.60;99.90;;;;;;5052903;28;19921;-71
2022/07/19 04:45:44;;;;;;;;;;;17.60;99.90;;;;;;5053239;28;19924;-71
2022/07/19 04:48:13;;;;;;;;;;;17.60;99.90;;;;;;5048380;28;19931;-71
2022/07/19 04:50:40;;;;;;;;;;;17.60;99.90;;;;;;5074561;28;19921;-70
2022/07/19 04:53:06;;;;;;;;;;;17.70;99.90;;;;;;5048695;28;19920;-71
2022/07/19 04:55:32;;;;;;;;;;;17.70;99.90;;;;;;5084910;28;19947;-71
2022/07/19 04:57:57;;;;;;;;;;;17.70;99.90;;;;;;5053183;28;19924;-71
2022/07/19 05:00:23;;;;;;;;;;;17.80;99.90;;;;;;5052523;28;20019;-71
2022/07/19 05:02:49;;;;;;;;;;;17.80;99.90;;;;;;5052723;28;20055;-71
2022/07/19 05:05:14;;;;;;;;;;;17.70;99.90;;;;;;5048364;28;19928;-72
2022/07/19 05:07:41;;;;;;;;;;;17.80;99.90;;;;;;5067816;28;19924;-71
2022/07/19 05:10:07;;;;;;;;;;;17.80;99.90;;;;;;5075569;28;19924;-73
2022/07/19 05:12:33;;;;;;;;;;;17.90;99.90;;;;;;5082869;28;19925;-73
2022/07/19 05:14:58;;;;;;;;;;;17.90;99.90;;;;;;5052621;28;19921;-73
2022/07/19 05:17:24;;;;;;;;;;;18.00;99.90;;;;;;5043525;28;20403;-73
2022/07/19 05:19:50;;;;;;;;;;;18.00;99.90;;;;;;5041687;28;19939;-73
2022/07/19 05:22:15;;;;;;;;;;;18.00;99.90;;;;;;5040707;28;19928;-73
2022/07/19 05:24:41;;;;;;;;;;;18.10;99.90;;;;;;5041418;28;19956;-71
2022/07/19 05:27:07;;;;;;;;;;;18.10;99.90;;;;;;5040824;28;19928;-70
2022/07/19 05:29:32;;;;;;;;;;;18.10;99.90;;;;;;5077284;28;19933;-70
2022/07/19 05:31:58;;;;;;;;;;;18.20;99.90;;;;;;5043179;28;19966;-70
2022/07/19 05:34:23;;;;;;;;;;;18.20;99.90;;;;;;5043753;28;19974;-70
2022/07/19 05:36:49;;;;;;;;;;;18.20;99.90;;;;;;5047412;28;20016;-70
2022/07/19 05:39:15;;;;;;;;;;;18.30;99.90;;;;;;5074658;28;19971;-71
2022/07/19 05:41:40;;;;;;;;;;;18.40;99.90;;;;;;5081629;28;19921;-71
2022/07/19 05:44:06;;;;;;;;;;;18.40;99.90;;;;;;5047339;28;19948;-70
2022/07/19 05:46:31;;;;;;;;;;;18.50;99.90;;;;;;5079662;28;19986;-71
2022/07/19 05:48:57;;;;;;;;;;;18.60;99.90;;;;;;5052032;28;19925;-71
2022/07/19 05:51:22;;;;;;;;;;;18.60;99.90;;;;;;4998243;28;19939;-70
2022/07/19 05:53:48;;;;;;;;;;;18.70;99.90;;;;;;5041373;28;19921;-70
2022/07/19 05:56:13;;;;;;;;;;;18.80;99.90;;;;;;5074108;28;19921;-70
2022/07/19 05:58:39;;;;;;;;;;;18.90;99.90;;;;;;5041323;28;19935;-70
2022/07/19 06:01:23;;;;;;;;;;;18.90;99.90;;;;;;5044133;28;19948;-73
2022/07/19 06:03:53;;;;;;;;;;;19.00;99.90;;;;;;5042980;28;21356;-72
2022/07/19 06:06:19;;;;;;;;;;;19.20;99.90;;;;;;5071994;28;19925;-73
2022/07/19 06:08:45;;;;;;;;;;;19.20;99.90;;;;;;5074285;28;20576;-73
2022/07/19 06:11:11;;;;;;;;;;;19.30;99.90;;;;;;5044614;28;19964;-73
2022/07/19 06:13:36;;;;;;;;;;;19.40;99.90;;;;;;5042555;28;19921;-73
2022/07/19 06:16:03;;;;;;;;;;;19.50;99.90;;;;;;5051378;28;20009;-73
2022/07/19 06:18:34;;;;;;;;;;;19.60;99.90;;;;;;5039858;28;19921;-73
2022/07/19 06:21:19;;;;;;;;;;;19.70;99.90;;;;;;5048309;28;20019;-73
2022/07/19 06:23:46;;;;;;;;;;;19.70;99.90;;;;;;5083238;28;19921;-73
2022/07/19 06:26:12;;;;;;;;;;;19.80;99.90;;;;;;5049365;28;19991;-73
2022/07/19 06:28:38;;;;;;;;;;;20.10;99.90;;;;;;5050298;28;19932;-73
2022/07/19 06:31:04;;;;;;;;;;;20.00;99.90;;;;;;5047178;28;20011;-73
2022/07/19 06:33:29;;;;;;;;;;;20.20;99.90;;;;;;5050811;28;19975;-73
2022/07/19 06:35:55;;;;;;;;;;;20.20;99.90;;;;;;5049229;28;19921;-73
2022/07/19 06:38:21;;;;;;;;;;;20.30;99.90;;;;;;5051305;28;20011;-73
2022/07/19 06:40:46;;;;;;;;;;;20.40;99.90;;;;;;5080304;28;19921;-73
2022/07/19 06:43:12;;;;;;;;;;;20.60;99.90;;;;;;5071099;28;20031;-73
2022/07/19 06:45:39;;;;;;;;;;;20.70;99.90;;;;;;5043272;28;19983;-73
2022/07/19 06:48:04;;;;;;;;;;;20.90;99.90;;;;;;5037453;28;19932;-74
2022/07/19 06:50:30;;;;;;;;;;;21.00;99.90;;;;;;5077812;28;19921;-73
2022/07/19 06:52:56;;;;;;;;;;;21.00;99.90;;;;;;5078017;28;19928;-73
2022/07/19 06:55:21;;;;;;;;;;;21.20;99.90;;;;;;5046807;28;20306;-73
2022/07/19 06:57:47;;;;;;;;;;;21.40;99.90;;;;;;5083889;28;20501;-73
2022/07/19 07:00:13;;;;;;;;;;;21.40;99.90;;;;;;5044459;28;19936;-73
2022/07/19 07:02:39;;;;;;;;;;;21.60;99.90;;;;;;5045203;28;19936;-73
2022/07/19 07:05:06;;;;;;;;;;;22.10;99.90;;;;;;5062617;28;20406;-73
2022/07/19 07:07:32;;;;;;;;;;;22.00;99.90;;;;;;5042017;28;19979;-72
2022/07/19 07:09:59;;;;;;;;;;;22.10;99.90;;;;;;5039299;28;19924;-73
2022/07/19 07:12:24;;;;;;;;;;;22.20;99.90;;;;;;5042297;28;19927;-73
2022/07/19 07:14:50;;;;;;;;;;;22.40;99.90;;;;;;5040903;28;19924;-73
2022/07/19 07:17:16;;;;;;;;;;;22.40;99.90;;;;;;5081974;28;19955;-73
2022/07/19 07:19:41;;;;;;;;;;;22.70;99.90;;;;;;5053037;28;19921;-73
2022/07/19 07:22:07;;;;;;;;;;;22.80;99.90;;;;;;5050997;28;19932;-73
2022/07/19 07:24:33;;;;;;;;;;;23.00;99.90;;;;;;5053081;28;19924;-73
2022/07/19 07:26:58;;;;;;;;;;;23.00;99.90;;;;;;5052823;28;19963;-74
2022/07/19 07:29:24;;;;;;;;;;;23.10;99.90;;;;;;5045993;28;19960;-73
2022/07/19 07:31:50;;;;;;;;;;;23.30;99.90;;;;;;5077739;28;19974;-73
2022/07/19 07:34:16;;;;;;;;;;;23.50;99.90;;;;;;5077965;28;20017;-74
2022/07/19 07:36:41;;;;;;;;;;;23.60;99.90;;;;;;5043260;28;20365;-73
2022/07/19 07:39:07;;;;;;;;;;;23.80;99.90;;;;;;5075243;28;19924;-73
2022/07/19 07:41:32;;;;;;;;;;;23.90;99.90;;;;;;5060329;28;19925;-73
2022/07/19 07:43:58;;;;;;;;;;;24.10;99.90;;;;;;5080758;28;19925;-74
2022/07/19 07:46:24;;;;;;;;;;;24.10;99.90;;;;;;5074690;28;19921;-74
2022/07/19 07:48:49;;;;;;;;;;;24.60;99.90;;;;;;5049903;28;20390;-74
2022/07/19 07:51:15;;;;;;;;;;;24.30;99.90;;;;;;5044642;28;20372;-73
2022/07/19 07:53:40;;;;;;;;;;;24.70;99.90;;;;;;5045041;28;20409;-74
2022/07/19 07:56:06;;;;;;;;;;;24.90;99.90;;;;;;5044815;28;19924;-73
2022/07/19 07:58:31;;;;;;;;;;;25.10;99.90;;;;;;5050724;28;19921;-73
2022/07/19 08:00:57;;;;;;;;;;;25.30;99.90;;;;;;5078190;28;19921;-73
2022/07/19 08:03:23;;;;;;;;;;;25.40;99.90;;;;;;5076080;28;19928;-73
2022/07/19 08:05:48;;;;;;;;;;;25.60;99.90;;;;;;5043505;28;20004;-73
2022/07/19 08:08:14;;;;;;;;;;;25.80;99.90;;;;;;5083651;28;19968;-73
2022/07/19 08:10:40;;;;;;;;;;;26.00;99.90;;;;;;5079722;28;19929;-73
2022/07/19 08:13:06;;;;;;;;;;;26.20;99.90;;;;;;5041708;28;19928;-73
2022/07/19 08:15:31;;;;;;;;;;;26.40;99.90;;;;;;5084519;28;19921;-73
2022/07/19 08:17:57;;;;;;;;;;;26.80;99.90;;;;;;5051392;28;19947;-74
2022/07/19 08:20:22;;;;;;;;;;;26.70;99.90;;;;;;5053738;28;19925;-74
2022/07/19 08:22:48;;;;;;;;;;;26.80;99.90;;;;;;5052582;28;19921;-74
2022/07/19 08:25:16;;;;;;;;;;;27.00;99.90;;;;;;5053883;28;19928;-73
2022/07/19 08:27:45;;;;;;;;;;;27.20;99.90;;;;;;5052870;28;20303;-74
2022/07/19 08:30:11;;;;;;;;;;;27.30;99.90;;;;;;5042063;28;20346;-74
2022/07/19 08:32:37;;;;;;;;;;;27.50;99.90;;;;;;5042314;28;20415;-74
2022/07/19 08:35:04;;;;;;;;;;;27.70;99.90;;;;;;5078416;28;20425;-73
2022/07/19 08:37:30;;;;;;;;;;;27.90;99.90;;;;;;5042387;28;20307;-74
2022/07/19 08:39:55;;;;;;;;;;;27.90;99.90;;;;;;5046732;28;19921;-74
2022/07/19 08:42:21;;;;;;;;;;;28.10;99.90;;;;;;5050462;28;19925;-74
2022/07/19 08:44:50;;;;;;;;;;;28.30;99.90;;;;;;5051161;28;19927;-74
2022/07/19 08:47:17;;;;;;;;;;;28.50;98.80;;;;;;5076638;28;19927;-74
2022/07/19 08:49:43;;;;;;;;;;;28.60;98.00;;;;;;5043473;28;20418;-74
2022/07/19 08:52:09;;;;;;;;;;;28.80;99.90;;;;;;5077839;28;19924;-73
2022/07/19 08:54:34;;;;;;;;;;;29.00;99.60;;;;;;5052791;28;20015;-73
2022/07/19 08:59:44;;;;;;;;;;;29.10;95.70;;;;;;5045736;28;19920;-73
2022/07/19 09:02:09;;;;;;;;;;;29.30;96.90;;;;;;5052987;28;19935;-74
2022/07/19 09:04:35;;;;;;;;;;;29.50;90.60;;;;;;5049690;28;19925;-74
2022/07/19 09:07:02;;;;;;;;;;;29.70;90.80;;;;;;5053156;28;19956;-74
2022/07/19 09:09:29;;;;;;;;;;;29.90;90.50;;;;;;5045655;28;19932;-74
2022/07/19 09:11:55;;;;;;;;;;;30.00;90.40;;;;;;5046130;28;19990;-74
2022/07/19 09:14:22;;;;;;;;;;;30.10;88.60;;;;;;5049562;28;19921;-74
2022/07/19 09:16:49;;;;;;;;;;;30.30;92.00;;;;;;5051167;28;19943;-73
2022/07/19 09:19:15;;;;;;;;;;;30.40;83.70;;;;;;5077575;28;20378;-74
2022/07/19 09:21:54;;;;;;;;;;;30.50;81.10;;;;;;5042527;28;19922;-73
2022/07/19 09:24:20;;;;;;;;;;;30.70;82.00;;;;;;5044903;28;19929;-74
2022/07/19 09:27:09;;;;;;;;;;;30.80;85.70;;;;;;5082730;28;20403;-74
2022/07/19 09:29:36;;;;;;;;;;;31.00;80.00;;;;;;5041332;28;20346;-74
2022/07/19 09:32:01;;;;;;;;;;;31.10;75.70;;;;;;5050624;28;20026;-74
2022/07/19 09:34:31;;;;;;;;;;;31.30;80.70;;;;;;5082371;28;20368;-74
2022/07/19 09:37:15;;;;;;;;;;;31.40;79.20;;;;;;5051311;28;20339;-73
2022/07/19 09:39:44;;;;;;;;;;;31.50;73.60;;;;;;5073760;28;19921;-73
2022/07/19 09:42:11;;;;;;;;;;;31.60;74.00;;;;;;5049414;28;19921;-76
2022/07/19 09:44:46;;;;;;;;;;;31.80;69.80;;;;;;5048482;28;19925;-73
2022/07/19 09:47:12;;;;;;;;;;;31.90;66.40;;;;;;5050322;28;19920;-73
2022/07/19 09:49:37;;;;;;;;;;;32.10;72.40;;;;;;5047438;28;20376;-73
2022/07/19 09:52:03;;;;;;;;;;;32.20;70.40;;;;;;5084315;28;19925;-73
2022/07/19 09:54:29;;;;;;;;;;;32.30;67.60;;;;;;5047067;28;19958;-73
2022/07/19 09:56:56;;;;;;;;;;;32.40;63.40;;;;;;5074391;28;19928;-73
2022/07/19 09:59:22;;;;;;;;;;;32.50;66.10;;;;;;5044844;28;20411;-73
2022/07/19 10:01:48;;;;;;;;;;;32.70;66.80;;;;;;5042128;28;20027;-73
2022/07/19 10:04:15;;;;;;;;;;;32.80;60.40;;;;;;5042913;28;20291;-73
2022/07/19 10:06:42;;;;;;;;;;;32.90;63.20;;;;;;5043104;28;20018;-73
2022/07/19 10:09:11;;;;;;;;;;;33.10;62.00;;;;;;5072630;28;22341;-74
2022/07/19 10:11:38;;;;;;;;;;;33.30;61.90;;;;;;5045280;28;20019;-74
2022/07/19 10:14:03;;;;;;;;;;;33.50;60.10;;;;;;5044256;28;19929;-74
2022/07/19 10:16:38;;;;;;;;;;;33.60;56.90;;;;;;5051225;28;19939;-73
2022/07/19 10:19:13;;;;;;;;;;;33.70;59.30;;;;;;5050328;28;19924;-74
2022/07/19 10:21:39;;;;;;;;;;;33.90;58.10;;;;;;5050625;28;19921;-73
2022/07/19 10:24:05;;;;;;;;;;;34.10;58.50;;;;;;5051307;28;19921;-74
2022/07/19 10:26:37;;;;;;;;;;;34.20;56.10;;;;;;5051871;28;19932;-74
2022/07/19 10:29:22;;;;;;;;;;;34.20;53.80;;;;;;5081506;28;19935;-73
2022/07/19 10:32:05;;;;;;;;;;;34.30;55.70;;;;;;5041142;28;19925;-73
2022/07/19 10:34:31;;;;;;;;;;;34.50;52.90;;;;;;5044656;28;19920;-74
2022/07/19 10:36:56;;;;;;;;;;;34.50;50.70;;;;;;5076112;28;19932;-73
2022/07/19 10:39:27;;;;;;;;;;;34.70;53.50;;;;;;5079377;28;19925;-74
2022/07/19 10:42:11;;;;;;;;;;;34.80;53.60;;;;;;5050070;28;19963;-74
2022/07/19 10:45:04;;;;;;;;;;;34.90;51.00;;;;;;5081180;28;19921;-74
2022/07/19 10:47:52;;;;;;;;;;;35.10;52.70;;;;;;5046645;28;19974;-74
2022/07/19 10:50:18;;;;;;;;;;;35.20;49.20;;;;;;5079303;28;19921;-74
2022/07/19 10:52:44;;;;;;;;;;;35.30;49.00;;;;;;5052007;28;19920;-74
2022/07/19 10:55:25;;;;;;;;;;;35.40;50.60;;;;;;5052988;28;20446;-73
2022/07/19 10:58:06;;;;;;;;;;;35.50;49.40;;;;;;5085765;28;19947;-74
2022/07/19 11:00:42;;;;;;;;;;;35.60;50.30;;;;;;5086273;28;19971;-74
2022/07/19 11:03:22;;;;;;;;;;;35.70;49.60;;;;;;5027968;28;20413;-74
2022/07/19 11:05:53;;;;;;;;;;;35.90;48.50;;;;;;5086380;28;20390;-74
2022/07/19 11:08:35;;;;;;;;;;;36.00;48.80;;;;;;5048998;28;19929;-73
2022/07/19 11:11:11;;;;;;;;;;;36.00;49.20;;;;;;5051043;28;20444;-74
2022/07/19 11:13:37;;;;;;;;;;;36.20;47.90;;;;;;5051263;28;20401;-73
2022/07/19 11:16:03;;;;;;;;;;;36.30;48.00;;;;;;5051552;28;19936;-73
2022/07/19 11:18:30;;;;;;;;;;;36.30;46.60;;;;;;5055287;28;20414;-73
2022/07/19 11:20:59;;;;;;;;;;;36.40;48.00;;;;;;5053307;28;20012;-73
2022/07/19 11:23:29;;;;;;;;;;;36.50;46.20;;;;;;5051737;28;20414;-73
2022/07/19 11:26:04;;;;;;;;;;;36.70;46.20;;;;;;5052666;28;20284;-73
2022/07/19 11:28:31;;;;;;;;;;;36.70;45.50;;;;;;5054930;28;20398;-73
2022/07/19 11:30:56;;;;;;;;;;;36.80;40.50;;;;;;5087449;28;20379;-73
2022/07/19 11:33:22;;;;;;;;;;;36.80;44.60;;;;;;5081054;28;19927;-73
2022/07/19 11:35:58;;;;;;;;;;;37.00;45.20;;;;;;5054039;28;19921;-73
2022/07/19 11:38:32;;;;;;;;;;;37.10;44.70;;;;;;5043316;28;19921;-73
2022/07/19 11:40:58;;;;;;;;;;;37.20;44.60;;;;;;5045699;28;19990;-73
2022/07/19 11:43:23;;;;;;;;;;;37.30;43.70;;;;;;5051676;28;19920;-73
2022/07/19 11:45:49;;;;;;;;;;;37.40;43.50;;;;;;5054773;28;20291;-73
2022/07/19 11:48:25;;;;;;;;;;;37.40;41.30;;;;;;5051508;28;19925;-73
2022/07/19 11:51:04;;;;;;;;;;;37.40;43.00;;;;;;5052080;28;19959;-73
2022/07/19 11:53:30;;;;;;;;;;;37.50;41.70;;;;;;5081788;28;19929;-73
2022/07/19 11:55:56;;;;;;;;;;;37.60;42.70;;;;;;5050697;28;19921;-73
2022/07/19 11:58:22;;;;;;;;;;;37.60;42.70;;;;;;5081276;28;19989;-73
2022/07/19 12:00:48;;;;;;;;;;;37.70;43.20;;;;;;5052412;28;20387;-73
2022/07/19 12:03:15;;;;;;;;;;;37.90;41.80;;;;;;5053166;28;20409;-74
2022/07/19 12:05:52;;;;;;;;;;;37.90;42.70;;;;;;5052561;28;19925;-74
2022/07/19 12:08:18;;;;;;;;;;;38.00;41.50;;;;;;5081508;28;19925;-74
2022/07/19 12:10:45;;;;;;;;;;;38.10;42.30;;;;;;5049957;28;20324;-73
2022/07/19 12:13:16;;;;;;;;;;;38.20;42.00;;;;;;5053209;28;19980;-73
2022/07/19 12:15:49;;;;;;;;;;;38.00;40.40;;;;;;5051624;28;19968;-74
2022/07/19 12:18:17;;;;;;;;;;;38.20;42.60;;;;;;5046728;28;19921;-73
2022/07/19 12:20:43;;;;;;;;;;;38.40;41.60;;;;;;5050907;28;19971;-74
2022/07/19 12:23:13;;;;;;;;;;;38.40;40.60;;;;;;5044611;28;20012;-73
2022/07/19 12:25:39;;;;;;;;;;;38.50;40.50;;;;;;5078213;28;19921;-73
2022/07/19 12:28:05;;;;;;;;;;;38.60;40.70;;;;;;5048890;28;20069;-73
2022/07/19 12:30:31;;;;;;;;;;;38.60;40.30;;;;;;5052185;28;20375;-73
2022/07/19 12:33:09;;;;;;;;;;;38.60;35.80;;;;;;5051666;28;19921;-74
2022/07/19 12:35:46;;;;;;;;;;;38.50;40.70;;;;;;5039613;28;19925;-74
2022/07/19 12:38:12;;;;;;;;;;;38.60;40.40;;;;;;5080130;28;19928;-74
2022/07/19 12:40:39;;;;;;;;;;;38.60;40.50;;;;;;5052291;28;19920;-74
2022/07/19 12:43:06;;;;;;;;;;;38.80;40.80;;;;;;5051683;28;20033;-74
2022/07/19 12:45:31;;;;;;;;;;;38.90;39.00;;;;;;5049377;28;19925;-74
2022/07/19 12:47:57;;;;;;;;;;;38.90;40.30;;;;;;5052966;28;19988;-73
2022/07/19 12:50:26;;;;;;;;;;;39.00;39.40;;;;;;5051171;28;19925;-74
2022/07/19 12:52:52;;;;;;;;;;;39.00;36.60;;;;;;5053399;28;19921;-74
2022/07/19 12:55:18;;;;;;;;;;;39.00;39.50;;;;;;5048500;28;20012;-73
2022/07/19 12:57:43;;;;;;;;;;;39.10;38.60;;;;;;5043679;28;20016;-74
2022/07/19 13:00:09;;;;;;;;;;;39.20;37.40;;;;;;5027839;28;20029;-73
2022/07/19 13:02:35;;;;;;;;;;;39.00;35.10;;;;;;5075579;28;22543;-73
2022/07/19 13:05:00;;;;;;;;;;;39.00;35.30;;;;;;5073754;28;19921;-73
2022/07/19 13:07:26;;;;;;;;;;;39.30;36.80;;;;;;5044530;28;19928;-72
2022/07/19 13:09:51;;;;;;;;;;;39.40;37.70;;;;;;5075704;28;20017;-74
2022/07/19 13:12:17;;;;;;;;;;;39.00;34.20;;;;;;5043613;28;19932;-73
2022/07/19 13:14:42;;;;;;;;;;;39.10;37.30;;;;;;5059161;28;19946;-74
2022/07/19 13:17:11;;;;;;;;;;;39.30;36.70;;;;;;5040319;28;19927;-73
2022/07/19 13:19:38;;;;;;;;;;;39.40;36.70;;;;;;5075116;28;19928;-73
2022/07/19 13:22:04;;;;;;;;;;;39.60;40.10;;;;;;5043684;28;20102;-74
2022/07/19 13:24:29;;;;;;;;;;;39.70;36.70;;;;;;5042772;28;19932;-73
2022/07/19 13:26:55;;;;;;;;;;;39.90;37.30;;;;;;5078573;28;19920;-73
2022/07/19 13:29:21;;;;;;;;;;;40.00;36.70;;;;;;5043032;28;19925;-73
2022/07/19 13:31:47;;;;;;;;;;;40.10;35.60;;;;;;5043991;28;20409;-73
2022/07/19 13:34:12;;;;;;;;;;;40.10;36.40;;;;;;5041055;28;20398;-73
2022/07/19 13:36:38;;;;;;;;;;;40.20;37.30;;;;;;5074390;28;20398;-74
2022/07/19 13:39:04;;;;;;;;;;;40.30;37.30;;;;;;5074744;28;19964;-74
2022/07/19 13:41:29;;;;;;;;;;;40.50;36.10;;;;;;5045232;28;20383;-73
2022/07/19 13:43:55;;;;;;;;;;;40.50;37.00;;;;;;5035930;28;20391;-73
2022/07/19 13:46:21;;;;;;;;;;;40.60;36.70;;;;;;5068984;28;19970;-74
2022/07/19 13:48:46;;;;;;;;;;;40.50;35.60;;;;;;5075202;28;19925;-74
2022/07/19 13:51:12;;;;;;;;;;;40.50;34.20;;;;;;5075610;28;19925;-73
2022/07/19 13:53:38;;;;;;;;;;;40.50;36.40;;;;;;5073533;28;19989;-73
2022/07/19 13:56:04;;;;;;;;;;;40.60;35.80;;;;;;5040874;28;20278;-73
2022/07/19 13:58:30;;;;;;;;;;;40.70;34.60;;;;;;5049910;28;19920;-74
2022/07/19 14:00:55;;;;;;;;;;;40.80;36.20;;;;;;5051892;28;20391;-73
2022/07/19 14:03:21;;;;;;;;;;;41.00;36.60;;;;;;5050781;28;19920;-74
2022/07/19 14:05:48;;;;;;;;;;;41.10;36.20;;;;;;5051238;28;19921;-74
2022/07/19 14:08:14;;;;;;;;;;;41.30;36.20;;;;;;5081053;28;20354;-73
2022/07/19 14:10:39;;;;;;;;;;;41.20;35.10;;;;;;5056282;28;19925;-74
2022/07/19 14:13:05;;;;;;;;;;;41.10;34.00;;;;;;5041581;28;19932;-73
2022/07/19 14:15:31;;;;;;;;;;;41.10;34.90;;;;;;5071671;28;19921;-74
2022/07/19 14:17:57;;;;;;;;;;;41.20;34.20;;;;;;5051745;28;19921;-74